Time;durP1;ratioP1;P1;durP2;ratioP2;P2;SDS_P1;SDS_P2;PMS_P1;PMS_P2;Temp;Humidity;BMP_temperature;BMP_pressure;BME280_temperature;BME280_humidity;BME280_pressure;Samples;Min_cycle;Max_cycle;Signal;HPM_P1;HPM_P2
2024/02/04 00:00:20;;;;;;;5.37;4.30;;;10.90;99.90;;;;;;5071401;28;20173;-72
2024/02/04 00:02:45;;;;;;;4.90;4.20;;;10.80;99.90;;;;;;5071114;28;20202;-71
2024/02/04 00:05:11;;;;;;;3.90;3.30;;;10.90;99.90;;;;;;5071448;28;20726;-71
2024/02/04 00:07:36;;;;;;;4.30;3.43;;;10.90;99.90;;;;;;5071267;28;20171;-71
2024/02/04 00:10:02;;;;;;;4.70;2.87;;;10.80;99.90;;;;;;5071527;28;20166;-71
2024/02/04 00:12:28;;;;;;;3.07;2.63;;;10.70;99.90;;;;;;5071498;28;20162;-71
2024/02/04 00:14:53;;;;;;;2.80;2.50;;;10.70;99.90;;;;;;5071742;28;20400;-71
2024/02/04 00:17:19;;;;;;;6.03;3.73;;;10.60;99.90;;;;;;5071162;28;20170;-71
2024/02/04 00:19:44;;;;;;;4.83;4.20;;;10.50;99.90;;;;;;5071496;28;20174;-71
2024/02/04 00:22:10;;;;;;;5.80;4.50;;;10.50;99.90;;;;;;5071347;28;20190;-71
2024/02/04 00:24:36;;;;;;;5.53;4.00;;;10.50;99.90;;;;;;5071340;28;20649;-71
2024/02/04 00:27:02;;;;;;;4.13;3.73;;;10.50;99.90;;;;;;5070916;28;20747;-72
2024/02/04 00:29:27;;;;;;;4.90;4.17;;;10.40;99.90;;;;;;5069695;28;20169;-71
2024/02/04 00:31:52;;;;;;;4.30;3.40;;;10.40;99.90;;;;;;5069981;28;20548;-71
2024/02/04 00:34:18;;;;;;;7.17;4.27;;;10.30;99.90;;;;;;5071224;28;20167;-70
2024/02/04 00:36:43;;;;;;;6.63;4.20;;;10.30;99.90;;;;;;5071168;28;20208;-71
2024/02/04 00:39:09;;;;;;;5.87;4.40;;;10.30;99.90;;;;;;5070640;28;20167;-71
2024/02/04 00:41:35;;;;;;;4.47;4.07;;;10.30;99.90;;;;;;5071066;28;20162;-71
2024/02/04 00:44:01;;;;;;;5.10;4.30;;;10.30;99.90;;;;;;5071065;28;20985;-71
2024/02/04 00:46:27;;;;;;;5.53;3.50;;;10.30;99.90;;;;;;5071090;28;20546;-70
2024/02/04 00:48:53;;;;;;;4.93;3.80;;;10.30;99.90;;;;;;5069179;28;20416;-71
2024/02/04 00:51:20;;;;;;;4.43;3.67;;;10.30;99.90;;;;;;5071554;28;20408;-71
2024/02/04 00:53:46;;;;;;;3.60;3.30;;;10.30;99.90;;;;;;5074523;28;20182;-71
2024/02/04 00:56:12;;;;;;;4.13;3.73;;;10.30;99.90;;;;;;5074639;28;20832;-71
2024/02/04 00:58:38;;;;;;;3.40;3.10;;;10.30;99.90;;;;;;5074304;28;20409;-71
2024/02/04 01:01:04;;;;;;;3.33;3.03;;;10.30;99.90;;;;;;5074394;28;20166;-71
2024/02/04 01:03:31;;;;;;;3.20;2.60;;;10.30;99.90;;;;;;5074615;28;20451;-71
2024/02/04 01:05:57;;;;;;;4.20;3.80;;;10.30;99.90;;;;;;5074482;28;20772;-71
2024/02/04 01:08:22;;;;;;;3.10;2.90;;;10.30;99.90;;;;;;5074229;28;20404;-71
2024/02/04 01:10:50;;;;;;;4.70;3.60;;;10.30;99.90;;;;;;5074251;28;20173;-71
2024/02/04 01:13:16;;;;;;;3.77;3.13;;;10.40;99.90;;;;;;5074423;28;20167;-71
2024/02/04 01:15:42;;;;;;;3.77;3.37;;;10.40;99.90;;;;;;5074202;28;20491;-71
2024/02/04 01:18:07;;;;;;;4.57;3.30;;;10.40;99.90;;;;;;5074021;28;20245;-71
2024/02/04 01:20:33;;;;;;;2.53;2.30;;;10.50;99.90;;;;;;5074146;28;20224;-71
2024/02/04 01:22:58;;;;;;;3.30;3.00;;;10.40;99.90;;;;;;5072575;28;20202;-71
2024/02/04 01:25:24;;;;;;;9.60;2.93;;;10.40;99.90;;;;;;5073978;28;20217;-70
2024/02/04 01:27:49;;;;;;;5.40;3.13;;;10.40;99.90;;;;;;5073881;28;20162;-71
2024/02/04 01:30:15;;;;;;;2.60;2.40;;;10.40;99.90;;;;;;5074042;28;20584;-71
2024/02/04 01:32:40;;;;;;;3.30;2.60;;;10.40;99.90;;;;;;5074034;28;20200;-71
2024/02/04 01:35:06;;;;;;;2.50;2.23;;;10.40;99.90;;;;;;5073712;28;20665;-71
2024/02/04 01:37:32;;;;;;;3.30;2.63;;;10.40;99.90;;;;;;5073581;28;20249;-71
2024/02/04 01:39:57;;;;;;;2.40;2.10;;;10.30;99.90;;;;;;5073927;28;20500;-71
2024/02/04 01:42:23;;;;;;;3.47;2.50;;;10.30;99.90;;;;;;5072456;28;20255;-71
2024/02/04 01:44:48;;;;;;;3.47;3.17;;;10.30;99.90;;;;;;5073645;28;20170;-71
2024/02/04 01:47:14;;;;;;;3.00;1.93;;;10.30;99.90;;;;;;5073732;28;20216;-71
2024/02/04 01:49:40;;;;;;;3.37;2.10;;;10.30;99.90;;;;;;5073398;28;20189;-71
2024/02/04 01:52:08;;;;;;;2.70;2.17;;;10.30;99.90;;;;;;5072543;28;20732;-71
2024/02/04 01:54:34;;;;;;;3.47;2.07;;;10.30;99.90;;;;;;5073509;28;20651;-71
2024/02/04 01:57:03;;;;;;;3.03;2.20;;;10.30;99.90;;;;;;5073530;28;20846;-71
2024/02/04 01:59:30;;;;;;;3.13;2.60;;;10.30;99.90;;;;;;5073186;28;20414;-71
2024/02/04 02:02:05;;;;;;;2.60;2.40;;;10.30;99.90;;;;;;5072195;28;20409;-71
2024/02/04 02:04:31;;;;;;;3.10;2.80;;;10.30;99.90;;;;;;5073513;28;20499;-71
2024/02/04 02:06:59;;;;;;;3.40;2.60;;;10.30;99.90;;;;;;5073285;28;20502;-71
2024/02/04 02:09:26;;;;;;;2.87;2.50;;;10.30;99.90;;;;;;5071679;28;20174;-71
2024/02/04 02:12:07;;;;;;;3.60;2.60;;;10.40;99.90;;;;;;5073463;28;20787;-71
2024/02/04 02:14:37;;;;;;;3.27;2.97;;;10.40;99.90;;;;;;5073256;28;20502;-71
2024/02/04 02:17:17;;;;;;;2.40;2.20;;;10.50;99.90;;;;;;5073052;28;20431;-71
2024/02/04 02:19:52;;;;;;;2.90;2.60;;;10.50;99.90;;;;;;5073126;28;20392;-70
2024/02/04 02:22:44;;;;;;;5.60;2.60;;;10.50;99.90;;;;;;5073020;28;20455;-71
2024/02/04 02:25:10;;;;;;;2.93;2.57;;;10.40;99.90;;;;;;5073091;28;20421;-71
2024/02/04 02:27:49;;;;;;;2.63;2.40;;;10.50;99.90;;;;;;5071404;28;20942;-71
2024/02/04 02:30:16;;;;;;;3.70;2.70;;;10.50;99.90;;;;;;5072808;28;20401;-71
2024/02/04 02:32:42;;;;;;;3.10;2.43;;;10.50;99.90;;;;;;5071807;28;20404;-71
2024/02/04 02:35:08;;;;;;;3.23;2.93;;;10.50;99.90;;;;;;5072556;28;20420;-71
2024/02/04 02:37:40;;;;;;;6.23;2.43;;;10.50;99.90;;;;;;5071433;28;20416;-71
2024/02/04 02:40:34;;;;;;;3.87;3.47;;;10.50;99.90;;;;;;5072670;28;20174;-71
2024/02/04 02:43:02;;;;;;;3.53;3.03;;;10.50;99.90;;;;;;5072487;28;20831;-71
2024/02/04 02:45:28;;;;;;;4.93;3.07;;;10.50;99.90;;;;;;5071472;28;21021;-71
2024/02/04 02:47:54;;;;;;;4.03;2.80;;;10.50;99.90;;;;;;5072293;28;20428;-71
2024/02/04 02:50:20;;;;;;;4.93;2.47;;;10.50;99.90;;;;;;5072323;28;20412;-71
2024/02/04 02:52:46;;;;;;;3.50;3.20;;;10.50;99.90;;;;;;5072398;28;20429;-71
2024/02/04 02:55:11;;;;;;;5.13;3.57;;;10.60;99.90;;;;;;5072109;28;20428;-71
2024/02/04 02:57:37;;;;;;;3.17;2.87;;;10.60;99.90;;;;;;5071604;28;20652;-71
2024/02/04 03:00:05;;;;;;;3.63;2.80;;;10.60;99.90;;;;;;5072234;28;20749;-70
2024/02/04 03:02:31;;;;;;;3.30;3.00;;;10.60;99.90;;;;;;5071009;28;20289;-71
2024/02/04 03:04:56;;;;;;;3.40;2.70;;;10.60;99.90;;;;;;5072070;28;20825;-71
2024/02/04 03:07:22;;;;;;;3.50;3.20;;;10.70;99.90;;;;;;5072064;28;20205;-70
2024/02/04 03:09:48;;;;;;;4.43;4.00;;;10.70;99.90;;;;;;5072084;28;20166;-71
2024/02/04 03:12:13;;;;;;;4.23;2.80;;;10.70;99.90;;;;;;5072080;28;20250;-71
2024/02/04 03:14:39;;;;;;;3.70;3.30;;;10.80;99.90;;;;;;5071948;28;20176;-71
2024/02/04 03:17:04;;;;;;;4.00;3.40;;;10.70;99.90;;;;;;5071865;28;20194;-70
2024/02/04 03:19:30;;;;;;;3.97;3.27;;;10.70;99.90;;;;;;5071827;28;20175;-71
2024/02/04 03:21:55;;;;;;;4.93;4.47;;;10.70;99.90;;;;;;5071860;28;20167;-70
2024/02/04 03:24:21;;;;;;;4.30;3.90;;;10.70;99.90;;;;;;5072189;28;20170;-70
2024/02/04 03:26:46;;;;;;;6.90;4.53;;;10.70;99.90;;;;;;5071839;28;20557;-70
2024/02/04 03:29:12;;;;;;;4.10;3.30;;;10.70;99.90;;;;;;5071764;28;20231;-71
2024/02/04 03:31:37;;;;;;;4.53;3.80;;;10.70;99.90;;;;;;5070804;28;20170;-71
2024/02/04 03:34:03;;;;;;;4.80;3.43;;;10.80;99.90;;;;;;5071883;28;20180;-71
2024/02/04 03:36:30;;;;;;;3.90;3.27;;;10.80;99.90;;;;;;5071812;28;20186;-71
2024/02/04 03:38:56;;;;;;;3.73;3.23;;;10.80;99.90;;;;;;5071569;28;20242;-71
2024/02/04 03:41:21;;;;;;;5.53;3.60;;;10.90;99.90;;;;;;5071694;28;20903;-71
2024/02/04 03:43:47;;;;;;;5.97;3.80;;;10.90;99.90;;;;;;5071736;28;20304;-71
2024/02/04 03:46:16;;;;;;;4.60;3.57;;;11.00;99.90;;;;;;5071736;28;20197;-71
2024/02/04 03:48:42;;;;;;;4.87;3.60;;;11.00;99.90;;;;;;5070233;28;20638;-71
2024/02/04 03:51:08;;;;;;;3.40;3.00;;;10.90;99.90;;;;;;5071726;28;20773;-71
2024/02/04 03:53:34;;;;;;;3.53;3.17;;;10.90;99.90;;;;;;5071544;28;20443;-71
2024/02/04 03:56:00;;;;;;;4.43;3.33;;;11.00;99.90;;;;;;5071680;28;20420;-71
2024/02/04 03:58:29;;;;;;;16.33;10.63;;;11.00;99.90;;;;;;5071492;28;20166;-71
2024/02/04 04:00:57;;;;;;;3.83;3.23;;;11.10;99.90;;;;;;5071719;28;20215;-71
2024/02/04 04:03:23;;;;;;;6.80;4.70;;;11.10;99.90;;;;;;5071505;28;20451;-71
2024/02/04 04:05:49;;;;;;;3.20;2.60;;;11.10;99.90;;;;;;5070288;28;20482;-71
2024/02/04 04:08:14;;;;;;;5.83;3.20;;;11.10;99.90;;;;;;5071384;28;20212;-71
2024/02/04 04:10:40;;;;;;;3.50;3.10;;;11.20;99.90;;;;;;5071513;28;20253;-71
2024/02/04 04:13:05;;;;;;;4.63;3.17;;;11.10;99.90;;;;;;5071509;28;20169;-71
2024/02/04 04:15:31;;;;;;;5.90;3.20;;;11.10;99.90;;;;;;5071532;28;20212;-71
2024/02/04 04:17:56;;;;;;;12.13;8.90;;;11.20;99.90;;;;;;5071125;28;20177;-71
2024/02/04 04:20:22;;;;;;;3.40;3.10;;;11.20;99.90;;;;;;5070106;28;20752;-71
2024/02/04 04:22:47;;;;;;;3.10;2.67;;;11.20;99.90;;;;;;5071362;28;20232;-71
2024/02/04 04:25:14;;;;;;;3.10;2.30;;;11.20;99.90;;;;;;5071830;28;20273;-71
2024/02/04 04:27:39;;;;;;;2.50;2.30;;;11.20;99.90;;;;;;5075052;28;20224;-71
2024/02/04 04:30:06;;;;;;;2.80;2.57;;;11.20;99.90;;;;;;5075233;28;20396;-71
2024/02/04 04:32:32;;;;;;;3.13;2.80;;;11.30;99.90;;;;;;5075097;28;20170;-71
2024/02/04 04:34:57;;;;;;;3.77;3.47;;;11.30;99.90;;;;;;5075068;28;20959;-71
2024/02/04 04:37:23;;;;;;;4.37;2.80;;;11.20;99.90;;;;;;5074886;28;20495;-70
2024/02/04 04:39:48;;;;;;;3.40;2.97;;;11.20;99.90;;;;;;5073702;28;20178;-71
2024/02/04 04:42:14;;;;;;;4.27;2.70;;;11.20;99.90;;;;;;5074897;28;20194;-71
2024/02/04 04:44:40;;;;;;;3.47;2.90;;;11.20;99.90;;;;;;5075026;28;20165;-71
2024/02/04 04:47:05;;;;;;;4.30;3.47;;;11.20;99.90;;;;;;5074757;28;20182;-71
2024/02/04 04:49:31;;;;;;;3.93;3.37;;;11.20;99.90;;;;;;5074612;28;20752;-71
2024/02/04 04:51:56;;;;;;;4.60;3.13;;;11.20;99.90;;;;;;5074800;28;20531;-70
2024/02/04 04:54:22;;;;;;;4.13;3.70;;;11.20;99.90;;;;;;5074624;28;20182;-71
2024/02/04 04:56:48;;;;;;;4.93;3.33;;;11.20;99.90;;;;;;5074607;28;20272;-71
2024/02/04 04:59:15;;;;;;;4.80;3.03;;;11.20;99.90;;;;;;5073088;28;20205;-71
2024/02/04 05:01:48;;;;;;;5.07;4.13;;;11.20;99.90;;;;;;5074625;28;20575;-71
2024/02/04 05:04:14;;;;;;;3.87;3.47;;;11.20;99.90;;;;;;5074239;28;20462;-71
2024/02/04 05:06:40;;;;;;;4.73;4.13;;;11.30;99.90;;;;;;5074454;28;20954;-71
2024/02/04 05:09:05;;;;;;;3.67;3.27;;;11.20;99.90;;;;;;5074279;28;20397;-71
2024/02/04 05:11:31;;;;;;;4.43;3.13;;;11.30;99.90;;;;;;5074475;28;20177;-71
2024/02/04 05:13:56;;;;;;;4.37;3.57;;;11.30;99.90;;;;;;5073112;28;20177;-71
2024/02/04 05:16:22;;;;;;;3.90;3.23;;;11.30;99.90;;;;;;5074191;28;20603;-71
2024/02/04 05:18:47;;;;;;;5.60;4.20;;;11.40;99.90;;;;;;5074129;28;20166;-71
2024/02/04 05:21:13;;;;;;;5.70;3.70;;;11.40;99.90;;;;;;5074281;28;20219;-71
2024/02/04 05:23:38;;;;;;;4.83;3.90;;;11.40;99.90;;;;;;5074113;28;20198;-71
2024/02/04 05:26:05;;;;;;;6.70;4.03;;;11.30;99.90;;;;;;5074126;28;20669;-71
2024/02/04 05:28:31;;;;;;;4.90;3.40;;;11.30;99.90;;;;;;5073986;28;20273;-71
2024/02/04 05:30:56;;;;;;;3.93;3.30;;;11.30;99.90;;;;;;5074106;28;20454;-71
2024/02/04 05:33:22;;;;;;;4.10;3.67;;;11.30;99.90;;;;;;5074104;28;20404;-71
2024/02/04 05:35:47;;;;;;;4.73;3.10;;;11.30;99.90;;;;;;5072883;28;20704;-71
2024/02/04 05:38:13;;;;;;;11.00;6.93;;;11.30;99.90;;;;;;5073534;28;20162;-72
2024/02/04 05:40:39;;;;;;;11.03;7.93;;;11.20;99.90;;;;;;5072818;28;20208;-72
2024/02/04 05:43:07;;;;;;;5.20;3.50;;;11.30;99.90;;;;;;5073742;28;20190;-71
2024/02/04 05:45:42;;;;;;;3.90;3.30;;;11.20;99.90;;;;;;5073705;28;20178;-71
2024/02/04 05:48:08;;;;;;;4.60;3.60;;;11.20;99.90;;;;;;5073601;28;20925;-71
2024/02/04 05:50:34;;;;;;;4.63;3.33;;;11.20;99.90;;;;;;5073724;28;20491;-71
2024/02/04 05:52:59;;;;;;;7.23;3.77;;;11.10;99.90;;;;;;5073469;28;20574;-72
2024/02/04 05:55:25;;;;;;;4.63;3.90;;;11.10;99.90;;;;;;5073530;28;20231;-71
2024/02/04 05:57:50;;;;;;;6.37;4.17;;;11.20;99.90;;;;;;5073296;28;20181;-72
2024/02/04 06:00:16;;;;;;;5.70;4.60;;;11.10;99.90;;;;;;5073548;28;20215;-71
2024/02/04 06:02:43;;;;;;;5.57;3.67;;;11.00;99.90;;;;;;5073403;28;20255;-71
2024/02/04 06:05:09;;;;;;;5.27;4.40;;;11.00;99.90;;;;;;5073194;28;20188;-71
2024/02/04 06:07:35;;;;;;;6.90;4.90;;;11.10;99.90;;;;;;5073081;28;20761;-72
2024/02/04 06:10:03;;;;;;;5.13;4.10;;;11.00;99.90;;;;;;5073138;28;20404;-72
2024/02/04 06:12:29;;;;;;;5.50;4.33;;;11.00;99.90;;;;;;5072029;28;20212;-72
2024/02/04 06:14:54;;;;;;;10.13;4.23;;;11.00;99.90;;;;;;5073164;28;20436;-71
2024/02/04 06:17:20;;;;;;;6.03;4.57;;;11.00;99.90;;;;;;5072919;28;20174;-72
2024/02/04 06:19:45;;;;;;;5.93;4.40;;;11.00;99.90;;;;;;5073122;28;20170;-71
2024/02/04 06:22:11;;;;;;;3.60;3.03;;;11.00;99.90;;;;;;5072993;28;20170;-72
2024/02/04 06:24:38;;;;;;;4.60;3.37;;;11.10;99.90;;;;;;5071730;28;20174;-72
2024/02/04 06:27:04;;;;;;;3.90;3.37;;;11.00;99.90;;;;;;5072841;28;20213;-72
2024/02/04 06:29:30;;;;;;;4.00;3.17;;;11.10;99.90;;;;;;5072639;28;20432;-72
2024/02/04 06:31:56;;;;;;;4.00;3.10;;;11.10;99.90;;;;;;5072866;28;20170;-71
2024/02/04 06:34:21;;;;;;;9.60;6.50;;;11.10;99.90;;;;;;5072731;28;20174;-72
2024/02/04 06:36:47;;;;;;;8.00;6.43;;;11.10;99.90;;;;;;5072775;28;20425;-71
2024/02/04 06:39:12;;;;;;;3.33;2.90;;;11.20;99.90;;;;;;5072422;28;20239;-72
2024/02/04 06:41:38;;;;;;;3.00;2.53;;;11.20;99.90;;;;;;5072745;28;20158;-71
2024/02/04 06:44:04;;;;;;;2.70;2.00;;;11.20;99.90;;;;;;5072501;28;20459;-72
2024/02/04 06:46:29;;;;;;;2.93;2.50;;;11.20;99.90;;;;;;5072550;28;20190;-71
2024/02/04 06:48:55;;;;;;;1.80;1.50;;;11.20;99.90;;;;;;5071883;28;20404;-72
2024/02/04 06:51:21;;;;;;;1.83;1.47;;;11.10;99.90;;;;;;5072499;28;20178;-72
2024/02/04 06:53:46;;;;;;;1.70;1.43;;;11.10;99.90;;;;;;5071042;28;20657;-71
2024/02/04 06:56:12;;;;;;;1.30;1.20;;;11.00;99.90;;;;;;5072384;28;20553;-72
2024/02/04 06:58:39;;;;;;;2.10;1.60;;;10.90;99.90;;;;;;5072152;28;20174;-71
2024/02/04 07:01:04;;;;;;;1.33;1.10;;;10.90;99.90;;;;;;5072451;28;20405;-72
2024/02/04 07:03:30;;;;;;;1.17;1.07;;;10.90;99.90;;;;;;5072403;28;20440;-72
2024/02/04 07:05:57;;;;;;;2.67;1.70;;;10.90;99.90;;;;;;5072275;28;20231;-72
2024/02/04 07:08:22;;;;;;;1.37;1.23;;;10.80;99.90;;;;;;5071948;28;20400;-71
2024/02/04 07:10:48;;;;;;;2.83;1.37;;;10.80;99.90;;;;;;5072206;28;20837;-71
2024/02/04 07:13:14;;;;;;;1.93;1.30;;;10.80;99.90;;;;;;5070915;28;20238;-71
2024/02/04 07:15:39;;;;;;;3.07;1.60;;;10.80;99.90;;;;;;5072126;28;20231;-72
2024/02/04 07:18:05;;;;;;;1.67;1.33;;;10.70;99.90;;;;;;5070541;28;20269;-71
2024/02/04 07:20:30;;;;;;;2.57;2.37;;;10.80;99.90;;;;;;5071979;28;20174;-71
2024/02/04 07:22:56;;;;;;;1.63;1.17;;;10.70;99.90;;;;;;5070620;28;20205;-72
2024/02/04 07:25:22;;;;;;;1.33;1.13;;;10.70;99.90;;;;;;5071969;28;20186;-72
2024/02/04 07:27:48;;;;;;;1.80;1.70;;;10.70;99.90;;;;;;5071795;28;20162;-71
2024/02/04 07:30:13;;;;;;;2.43;1.50;;;10.80;99.90;;;;;;5071811;28;20403;-71
2024/02/04 07:32:39;;;;;;;1.67;1.20;;;10.80;99.90;;;;;;5070808;28;20180;-72
2024/02/04 07:35:05;;;;;;;2.00;1.47;;;10.80;99.90;;;;;;5071688;28;20229;-71
2024/02/04 07:37:31;;;;;;;1.47;1.37;;;10.80;99.90;;;;;;5071430;28;20173;-71
2024/02/04 07:39:56;;;;;;;2.03;1.83;;;10.90;99.90;;;;;;5071742;28;20497;-71
2024/02/04 07:42:22;;;;;;;1.60;1.30;;;10.90;99.90;;;;;;5071910;28;20216;-71
2024/02/04 07:44:48;;;;;;;2.03;1.60;;;11.00;99.90;;;;;;5071711;28;20211;-71
2024/02/04 07:47:13;;;;;;;2.73;2.00;;;11.00;99.90;;;;;;5071712;28;20166;-71
2024/02/04 07:49:39;;;;;;;1.80;1.40;;;11.00;99.90;;;;;;5071443;28;20498;-71
2024/02/04 07:52:05;;;;;;;1.70;1.60;;;10.90;99.90;;;;;;5071512;28;20165;-72
2024/02/04 07:54:30;;;;;;;1.67;1.57;;;10.90;99.90;;;;;;5071637;28;20174;-72
2024/02/04 07:56:56;;;;;;;1.20;1.10;;;10.90;99.90;;;;;;5071619;28;20420;-72
2024/02/04 07:59:21;;;;;;;1.73;1.63;;;11.00;99.90;;;;;;5071342;28;20215;-72
2024/02/04 08:01:47;;;;;;;3.33;1.50;;;11.00;99.90;;;;;;5074717;28;20162;-71
2024/02/04 08:04:13;;;;;;;2.00;1.60;;;11.00;99.90;;;;;;5075495;28;20193;-72
2024/02/04 08:06:38;;;;;;;1.67;1.37;;;11.10;99.90;;;;;;5075492;28;20181;-72
2024/02/04 08:09:04;;;;;;;1.60;1.23;;;11.10;99.90;;;;;;5075249;28;20613;-71
2024/02/04 08:11:30;;;;;;;2.30;2.00;;;11.10;99.90;;;;;;5075485;28;20231;-72
2024/02/04 08:13:56;;;;;;;1.97;1.50;;;11.20;99.90;;;;;;5075478;28;20701;-71
2024/02/04 08:16:21;;;;;;;2.50;2.20;;;11.40;99.90;;;;;;5075327;28;20214;-71
2024/02/04 08:18:47;;;;;;;2.03;1.53;;;11.50;99.90;;;;;;5075543;28;20174;-72
2024/02/04 08:21:12;;;;;;;3.83;1.50;;;11.50;99.90;;;;;;5075413;28;20209;-72
2024/02/04 08:23:39;;;;;;;1.83;1.67;;;11.60;99.90;;;;;;5074058;28;20197;-72
2024/02/04 08:26:05;;;;;;;1.83;1.73;;;11.60;99.90;;;;;;5074048;28;20194;-72
2024/02/04 08:28:31;;;;;;;2.40;1.30;;;11.70;99.90;;;;;;5075012;28;20401;-71
2024/02/04 08:30:56;;;;;;;4.00;2.23;;;11.60;99.90;;;;;;5075293;28;20532;-71
2024/02/04 08:33:22;;;;;;;2.07;1.47;;;11.60;99.90;;;;;;5075087;28;20660;-71
2024/02/04 08:35:48;;;;;;;1.57;1.40;;;11.60;99.90;;;;;;5075033;28;20193;-71
2024/02/04 08:38:14;;;;;;;2.13;1.93;;;11.60;99.90;;;;;;5074873;28;20223;-72
2024/02/04 08:40:39;;;;;;;2.23;2.03;;;11.70;99.90;;;;;;5075034;28;20442;-72
2024/02/04 08:43:05;;;;;;;1.73;1.60;;;11.70;99.90;;;;;;5074936;28;20201;-71
2024/02/04 08:45:30;;;;;;;2.90;2.50;;;11.70;99.90;;;;;;5074895;28;20590;-71
2024/02/04 08:47:56;;;;;;;1.90;1.60;;;11.60;99.90;;;;;;5073360;28;20201;-72
2024/02/04 08:50:21;;;;;;;3.13;1.63;;;11.60;99.90;;;;;;5074809;28;20223;-71
2024/02/04 08:52:47;;;;;;;2.10;1.77;;;11.70;99.90;;;;;;5074337;28;20190;-71
2024/02/04 08:55:13;;;;;;;2.70;1.30;;;11.80;99.90;;;;;;5073848;28;20236;-71
2024/02/04 08:57:39;;;;;;;1.57;1.30;;;12.00;99.90;;;;;;5073202;28;20174;-71
2024/02/04 09:00:08;;;;;;;1.80;1.30;;;12.00;99.90;;;;;;5073388;28;20444;-71
2024/02/04 09:02:37;;;;;;;2.67;1.10;;;12.00;99.90;;;;;;5072849;28;20448;-67
2024/02/04 09:05:02;;;;;;;1.50;1.40;;;12.20;99.90;;;;;;5073296;28;20512;-67
2024/02/04 09:07:28;;;;;;;1.43;1.10;;;12.30;99.90;;;;;;5073094;28;20491;-68
2024/02/04 09:09:53;;;;;;;2.27;1.60;;;12.40;99.90;;;;;;5073508;28;20173;-67
2024/02/04 09:12:19;;;;;;;1.30;1.20;;;12.60;99.90;;;;;;5072863;28;20544;-67
2024/02/04 09:14:44;;;;;;;1.00;0.80;;;12.60;99.90;;;;;;5073205;28;20174;-68
2024/02/04 09:17:10;;;;;;;1.00;0.90;;;12.60;99.90;;;;;;5073214;28;20185;-68
2024/02/04 09:19:36;;;;;;;1.53;0.80;;;12.70;99.90;;;;;;5072906;28;20174;-67
2024/02/04 09:22:01;;;;;;;1.30;0.90;;;12.80;99.90;;;;;;5073112;28;20564;-68
2024/02/04 09:24:28;;;;;;;0.90;0.70;;;12.70;99.90;;;;;;5073200;28;20192;-68
2024/02/04 09:26:53;;;;;;;0.90;0.80;;;12.80;99.90;;;;;;5073095;28;20190;-67
2024/02/04 09:29:19;;;;;;;4.50;1.10;;;12.60;99.90;;;;;;5072828;28;20769;-67
2024/02/04 09:31:45;;;;;;;1.13;1.03;;;12.50;99.90;;;;;;5073136;28;20249;-67
2024/02/04 09:34:10;;;;;;;0.90;0.70;;;12.50;99.90;;;;;;5073097;28;20484;-68
2024/02/04 09:36:36;;;;;;;0.90;0.77;;;12.40;99.90;;;;;;5072979;28;20194;-67
2024/02/04 09:39:01;;;;;;;0.90;0.70;;;12.50;99.90;;;;;;5072716;28;20201;-67
2024/02/04 09:41:27;;;;;;;0.87;0.70;;;12.40;99.90;;;;;;5072958;28;20200;-68
2024/02/04 09:43:53;;;;;;;1.00;0.90;;;12.40;99.90;;;;;;5072875;28;20194;-68
2024/02/04 09:46:19;;;;;;;1.30;1.20;;;12.40;99.90;;;;;;5072877;28;20194;-67
2024/02/04 09:48:45;;;;;;;2.10;1.33;;;12.50;99.90;;;;;;5072587;28;20798;-68
2024/02/04 09:51:11;;;;;;;1.03;0.90;;;12.40;99.90;;;;;;5072912;28;20539;-67
2024/02/04 09:53:42;;;;;;;1.80;1.20;;;12.40;99.90;;;;;;4972625;28;2878601;-67
2024/02/04 09:56:10;;;;;;;1.13;1.03;;;12.60;99.90;;;;;;5073682;28;20482;-68
2024/02/04 09:58:36;;;;;;;1.50;1.40;;;12.70;99.90;;;;;;5073354;28;20408;-67
2024/02/04 10:01:04;;;;;;;1.60;1.50;;;12.70;99.90;;;;;;5073691;28;20763;-67
2024/02/04 10:03:30;;;;;;;2.17;1.07;;;12.70;99.90;;;;;;5073381;28;20685;-67
2024/02/04 10:05:56;;;;;;;2.17;1.20;;;12.60;99.90;;;;;;5073403;28;20431;-67
2024/02/04 10:08:23;;;;;;;2.33;1.60;;;12.40;99.90;;;;;;5073118;28;20173;-68
2024/02/04 10:10:48;;;;;;;1.73;1.47;;;12.40;99.90;;;;;;5073135;28;20932;-68
2024/02/04 10:13:14;;;;;;;1.87;1.37;;;12.40;99.90;;;;;;5073307;28;20413;-67
2024/02/04 10:15:39;;;;;;;1.43;1.33;;;12.40;99.90;;;;;;5073186;28;20194;-67
2024/02/04 10:18:06;;;;;;;1.30;1.20;;;12.40;99.90;;;;;;5072944;28;20201;-67
2024/02/04 10:20:32;;;;;;;2.63;1.77;;;12.30;99.90;;;;;;5073169;28;20227;-68
2024/02/04 10:22:57;;;;;;;2.27;1.63;;;12.30;99.90;;;;;;5072254;28;20480;-67
2024/02/04 10:25:23;;;;;;;1.60;1.47;;;12.20;99.90;;;;;;5073272;28;20808;-67
2024/02/04 10:27:49;;;;;;;3.70;1.90;;;12.30;99.90;;;;;;5072707;28;20170;-68
2024/02/04 10:30:15;;;;;;;5.90;4.10;;;12.20;99.90;;;;;;5073009;28;20163;-67
2024/02/04 10:32:41;;;;;;;4.33;2.43;;;12.40;99.90;;;;;;5072811;28;20178;-67
2024/02/04 10:35:08;;;;;;;2.63;2.43;;;12.50;99.90;;;;;;5072752;28;20186;-67
2024/02/04 10:37:34;;;;;;;1.93;1.83;;;12.60;99.90;;;;;;5072573;28;20421;-67
2024/02/04 10:39:59;;;;;;;1.60;1.40;;;12.60;99.90;;;;;;5072704;28;20742;-67
2024/02/04 10:42:27;;;;;;;1.90;1.70;;;12.70;99.90;;;;;;5071345;28;20213;-68
2024/02/04 10:44:54;;;;;;;2.73;2.30;;;12.70;99.90;;;;;;5072628;28;20641;-67
2024/02/04 10:47:23;;;;;;;2.43;1.40;;;12.70;99.90;;;;;;5072606;28;20479;-67
2024/02/04 10:49:55;;;;;;;2.60;2.13;;;12.80;99.90;;;;;;5071333;28;20782;-67
2024/02/04 10:52:23;;;;;;;1.80;1.37;;;12.70;99.90;;;;;;5072350;28;20818;-67
2024/02/04 10:54:50;;;;;;;1.80;1.40;;;12.70;99.90;;;;;;5072475;28;20908;-67
2024/02/04 10:57:21;;;;;;;1.87;1.40;;;12.60;99.90;;;;;;5071233;28;20478;-68
2024/02/04 10:59:48;;;;;;;1.20;1.00;;;12.60;99.90;;;;;;5072458;28;20400;-67
2024/02/04 11:02:15;;;;;;;4.00;1.30;;;12.50;99.90;;;;;;5072076;28;20819;-67
2024/02/04 11:04:42;;;;;;;1.50;1.30;;;12.50;99.90;;;;;;5072372;28;20409;-67
2024/02/04 11:07:09;;;;;;;1.50;0.80;;;12.60;99.90;;;;;;5071942;28;20424;-68
2024/02/04 11:09:36;;;;;;;1.50;0.90;;;12.70;99.90;;;;;;5070750;28;20993;-67
2024/02/04 11:12:06;;;;;;;1.50;1.20;;;13.00;99.90;;;;;;5072195;28;20400;-67
2024/02/04 11:14:33;;;;;;;1.63;1.03;;;13.20;99.90;;;;;;5071982;28;20412;-67
2024/02/04 11:17:22;;;;;;;1.40;1.20;;;13.20;99.90;;;;;;5072094;28;20431;-67
2024/02/04 11:19:58;;;;;;;1.03;0.93;;;13.30;99.90;;;;;;5072112;28;20764;-67
2024/02/04 11:22:40;;;;;;;0.90;0.80;;;13.20;99.90;;;;;;5072059;28;20411;-67
2024/02/04 11:25:29;;;;;;;1.00;0.80;;;13.10;99.90;;;;;;5071987;28;20412;-67
2024/02/04 11:27:55;;;;;;;0.90;0.80;;;13.00;99.90;;;;;;5071815;28;20407;-67
2024/02/04 11:30:22;;;;;;;1.33;1.23;;;12.90;99.90;;;;;;5072013;28;20763;-67
2024/02/04 11:32:48;;;;;;;1.67;1.17;;;12.80;99.90;;;;;;5071929;28;20745;-67
2024/02/04 11:35:14;;;;;;;2.97;1.20;;;12.90;99.90;;;;;;5071751;28;20435;-67
2024/02/04 11:37:45;;;;;;;1.63;1.37;;;12.90;99.90;;;;;;5071689;28;20231;-67
2024/02/04 11:40:16;;;;;;;1.87;0.90;;;12.90;99.90;;;;;;5071933;28;20366;-67
2024/02/04 11:42:42;;;;;;;1.60;1.40;;;12.80;99.90;;;;;;5071789;28;20448;-67
2024/02/04 11:45:11;;;;;;;1.57;1.47;;;12.60;99.90;;;;;;5071929;28;20420;-67
2024/02/04 11:47:37;;;;;;;1.40;1.30;;;12.70;99.90;;;;;;5071580;28;20470;-68
2024/02/04 11:50:03;;;;;;;1.87;1.77;;;12.70;99.90;;;;;;5071764;28;20412;-67
2024/02/04 11:52:29;;;;;;;3.10;1.60;;;12.50;99.90;;;;;;5071645;28;20420;-68
2024/02/04 11:54:55;;;;;;;1.53;1.43;;;12.70;99.90;;;;;;5071624;28;20408;-68
2024/02/04 11:57:22;;;;;;;1.83;1.73;;;12.60;99.90;;;;;;5071761;28;20166;-68
2024/02/04 11:59:48;;;;;;;1.40;1.30;;;12.60;99.90;;;;;;5071852;28;20513;-67
2024/02/04 12:02:17;;;;;;;2.97;1.33;;;12.60;99.90;;;;;;5071576;28;20413;-67
2024/02/04 12:04:44;;;;;;;6.63;1.80;;;12.50;99.90;;;;;;5071621;28;20400;-68
2024/02/04 12:07:10;;;;;;;2.83;1.50;;;12.50;99.90;;;;;;5071253;28;20417;-67
2024/02/04 12:09:37;;;;;;;2.00;1.30;;;12.70;99.90;;;;;;5071364;28;20400;-67
2024/02/04 12:12:04;;;;;;;1.47;1.37;;;12.60;99.90;;;;;;5071580;28;20856;-67
2024/02/04 12:14:31;;;;;;;1.77;1.57;;;12.60;99.90;;;;;;5071577;28;20404;-67
2024/02/04 12:17:00;;;;;;;1.23;1.10;;;12.40;99.90;;;;;;5071451;28;20432;-67
2024/02/04 12:19:25;;;;;;;3.43;1.70;;;12.20;99.90;;;;;;5071311;28;20408;-67
2024/02/04 12:21:51;;;;;;;2.00;1.20;;;12.00;99.90;;;;;;5071510;28;20404;-67
2024/02/04 12:24:16;;;;;;;2.63;0.87;;;12.00;99.90;;;;;;5071365;28;20194;-67
2024/02/04 12:26:45;;;;;;;1.33;1.17;;;11.90;99.90;;;;;;5071396;28;20190;-67
2024/02/04 12:29:10;;;;;;;1.40;1.30;;;11.90;99.90;;;;;;5071225;28;20408;-67
2024/02/04 12:31:36;;;;;;;1.70;1.30;;;11.80;99.90;;;;;;5071367;28;20431;-67
2024/02/04 12:34:01;;;;;;;1.43;1.30;;;11.90;99.90;;;;;;5071400;28;20166;-67
2024/02/04 12:36:28;;;;;;;1.43;1.33;;;11.80;99.90;;;;;;5071037;28;20186;-67
2024/02/04 12:39:00;;;;;;;1.30;0.83;;;11.90;99.90;;;;;;5070984;28;20190;-67
2024/02/04 12:41:27;;;;;;;1.40;1.30;;;11.80;99.90;;;;;;5071277;28;20462;-67